Time;durP1;ratioP1;P1;durP2;ratioP2;P2;SDS_P1;SDS_P2;PMS_P1;PMS_P2;Temp;Humidity;BMP_temperature;BMP_pressure;BME280_temperature;BME280_humidity;BME280_pressure;Samples;Min_cycle;Max_cycle;Signal;HPM_P1;HPM_P2
2022/03/03 00:00:55;;;;;;;83.10;40.20;;;;;;;1.30;53.74;99181.61;106235;1273;97859;-69
2022/03/03 00:03:27;;;;;;;81.00;40.60;;;;;;;1.29;53.81;99178.48;106114;1273;95220;-70
2022/03/03 00:06:00;;;;;;;86.50;44.00;;;;;;;1.26;53.78;99179.12;106120;1273;110353;-70
2022/03/03 00:08:29;;;;;;;95.70;45.50;;;;;;;1.25;53.95;99182.82;106121;1273;97954;-69
2022/03/03 00:10:57;;;;;;;84.60;41.10;;;;;;;1.21;53.93;99178.22;106116;1273;108282;-69
2022/03/03 00:13:27;;;;;;;89.60;45.00;;;;;;;1.18;53.83;99175.89;106074;1273;97844;-71
2022/03/03 00:16:04;;;;;;;84.10;43.20;;;;;;;1.16;53.79;99174.89;106126;1273;98601;-70
2022/03/03 00:18:32;;;;;;;94.10;44.70;;;;;;;1.15;53.83;99175.10;106123;1273;111367;-68
2022/03/03 00:21:00;;;;;;;85.70;45.30;;;;;;;1.13;53.91;99173.08;106120;1273;98069;-69
2022/03/03 00:23:33;;;;;;;84.40;43.20;;;;;;;1.13;53.93;99170.10;106105;1273;108310;-72
2022/03/03 00:26:03;;;;;;;86.00;44.00;;;;;;;1.15;54.07;99165.84;106151;1273;97947;-70
2022/03/03 00:28:31;;;;;;;90.60;44.00;;;;;;;1.16;53.95;99165.11;106100;1272;97736;-70
2022/03/03 00:30:59;;;;;;;93.80;45.60;;;;;;;1.17;54.05;99163.15;106102;1273;111489;-71
2022/03/03 00:33:27;;;;;;;89.40;44.90;;;;;;;1.17;54.17;99157.91;106087;1274;96380;-71
2022/03/03 00:35:55;;;;;;;92.00;46.10;;;;;;;1.14;54.01;99152.96;106126;1273;108529;-70
2022/03/03 00:38:29;;;;;;;86.30;42.50;;;;;;;1.11;54.07;99149.89;106130;1274;97963;-69
2022/03/03 00:40:57;;;;;;;85.40;42.80;;;;;;;1.10;54.07;99145.20;106110;1274;97843;-69
2022/03/03 00:43:29;;;;;;;88.00;42.50;;;;;;;1.11;54.07;99146.05;106093;1274;111619;-69
2022/03/03 00:46:00;;;;;;;94.30;45.40;;;;;;;1.12;54.34;99142.86;106081;1274;97958;-70
2022/03/03 00:48:28;;;;;;;94.20;45.10;;;;;;;1.17;54.04;99146.39;106057;1274;107728;-70
2022/03/03 00:51:04;;;;;;;87.70;44.60;;;;;;;1.17;54.30;99142.04;106056;1273;99001;-71
2022/03/03 00:53:35;;;;;;;91.40;45.50;;;;;;;1.15;54.25;99140.85;106080;1274;97109;-72
2022/03/03 00:56:05;;;;;;;90.50;42.70;;;;;;;1.15;54.25;99140.16;106105;1273;111058;-71
2022/03/03 00:58:34;;;;;;;97.70;49.20;;;;;;;1.17;54.41;99141.33;106137;1273;98002;-71
2022/03/03 01:01:02;;;;;;;92.50;46.20;;;;;;;1.17;54.15;99142.20;106077;1274;107913;-70
2022/03/03 01:03:30;;;;;;;87.50;44.70;;;;;;;1.16;54.35;99139.81;106108;1274;97209;-69
2022/03/03 01:05:58;;;;;;;88.50;44.80;;;;;;;1.15;54.28;99135.63;106226;1273;97874;-67
2022/03/03 01:08:26;;;;;;;95.40;42.90;;;;;;;1.16;54.30;99132.48;106089;1274;111725;-68
2022/03/03 01:10:56;;;;;;;85.60;42.40;;;;;;;1.16;54.43;99129.48;105956;1274;97883;-67
2022/03/03 01:13:26;;;;;;;82.90;42.50;;;;;;;1.17;54.43;99129.98;106038;1274;106755;-69
2022/03/03 01:15:57;;;;;;;85.60;43.40;;;;;;;1.18;54.49;99133.96;105941;1274;97866;-66
2022/03/03 01:18:29;;;;;;;84.10;40.80;;;;;;;1.19;54.55;99131.48;106139;1273;95266;-70
2022/03/03 01:20:58;;;;;;;86.30;44.60;;;;;;;1.17;54.61;99130.52;106024;1273;111478;-69
2022/03/03 01:23:26;;;;;;;83.80;41.20;;;;;;;1.15;54.44;99123.23;106073;1273;97897;-69
2022/03/03 01:25:56;;;;;;;89.80;43.30;;;;;;;1.13;54.51;99123.98;106070;1273;108156;-70
2022/03/03 01:28:24;;;;;;;82.60;41.90;;;;;;;1.13;54.69;99118.92;106085;1273;97785;-71
2022/03/03 01:30:53;;;;;;;85.50;41.60;;;;;;;1.12;54.67;99114.43;106090;1273;96381;-70
2022/03/03 01:33:23;;;;;;;83.80;43.30;;;;;;;1.11;54.37;99112.16;106069;1273;111340;-70
2022/03/03 01:35:55;;;;;;;88.00;44.60;;;;;;;1.12;54.74;99114.06;106121;1273;97927;-68
2022/03/03 01:38:25;;;;;;;93.30;43.70;;;;;;;1.13;54.61;99114.03;106132;1273;109001;-71
2022/03/03 01:40:55;;;;;;;88.80;43.70;;;;;;;1.16;54.65;99114.45;106076;1273;98725;-69
2022/03/03 01:43:25;;;;;;;87.00;43.00;;;;;;;1.18;54.71;99117.38;106072;1273;97916;-71
2022/03/03 01:45:55;;;;;;;86.00;43.80;;;;;;;1.20;54.62;99118.71;105954;1274;112994;-70
2022/03/03 01:48:26;;;;;;;88.10;42.00;;;;;;;1.22;54.90;99110.60;106063;1274;97951;-72
2022/03/03 01:50:55;;;;;;;84.20;43.10;;;;;;;1.26;54.66;99110.63;106026;1274;108111;-70
2022/03/03 01:53:26;;;;;;;90.90;44.50;;;;;;;1.28;54.80;99108.28;106009;1274;97916;-68
2022/03/03 01:55:55;;;;;;;85.90;43.20;;;;;;;1.30;54.75;99106.99;106155;1274;95861;-71
2022/03/03 01:58:27;;;;;;;84.70;40.10;;;;;;;1.32;54.90;99098.36;106009;1274;111386;-71
2022/03/03 02:00:58;;;;;;;84.90;42.70;;;;;;;1.36;54.90;99098.77;106078;1274;97891;-70
2022/03/03 02:03:26;;;;;;;88.00;42.10;;;;;;;1.37;54.86;99100.68;105977;1274;110678;-70
2022/03/03 02:05:59;;;;;;;85.80;43.40;;;;;;;1.37;54.92;99094.19;106097;1274;97979;-71
2022/03/03 02:08:33;;;;;;;92.90;43.90;;;;;;;1.38;54.82;99092.77;106140;1274;97890;-70
2022/03/03 02:11:01;;;;;;;90.60;45.40;;;;;;;1.38;54.82;99095.40;106074;1273;111493;-69
2022/03/03 02:13:29;;;;;;;85.30;42.80;;;;;;;1.34;54.86;99091.32;106088;1274;97878;-69
2022/03/03 02:15:59;;;;;;;87.00;43.30;;;;;;;1.29;54.75;99090.95;105870;1274;107706;-71
2022/03/03 02:18:27;;;;;;;97.20;48.80;;;;;;;1.27;54.88;99085.98;106058;1274;98014;-69
2022/03/03 02:20:56;;;;;;;89.40;44.90;;;;;;;1.22;54.74;99085.95;106112;1274;98028;-68
2022/03/03 02:23:26;;;;;;;97.10;46.80;;;;;;;1.15;54.84;99082.36;106097;1274;111306;-69
2022/03/03 02:25:56;;;;;;;92.60;45.10;;;;;;;1.08;54.70;99082.23;105994;1274;96177;-69
2022/03/03 02:28:26;;;;;;;85.60;43.40;;;;;;;1.05;54.87;99080.94;106057;1274;108318;-70
2022/03/03 02:30:57;;;;;;;93.70;45.20;;;;;;;1.07;54.97;99079.85;106042;1274;98048;-68
2022/03/03 02:33:28;;;;;;;94.10;44.90;;;;;;;1.08;54.89;99077.34;106131;1274;97909;-69
2022/03/03 02:36:18;;;;;;;85.70;45.30;;;;;;;1.09;54.84;99071.39;106050;1274;112020;-70
2022/03/03 02:38:51;;;;;;;79.90;43.30;;;;;;;1.11;54.94;99071.50;106093;1274;96958;-68
2022/03/03 02:41:24;;;;;;;85.40;39.90;;;;;;;1.11;54.91;99065.92;106106;1274;107722;-69
2022/03/03 02:43:56;;;;;;;84.30;41.20;;;;;;;1.12;55.02;99062.36;106100;1273;97868;-67
2022/03/03 02:46:24;;;;;;;81.80;41.80;;;;;;;1.14;55.08;99060.20;106099;1273;97971;-67
2022/03/03 02:49:00;;;;;;;82.30;41.50;;;;;;;1.14;54.87;99058.09;106088;1273;111071;-68
2022/03/03 02:51:28;;;;;;;85.20;40.10;;;;;;;1.16;55.13;99058.04;106130;1273;97861;-69
2022/03/03 02:53:56;;;;;;;78.20;40.40;;;;;;;1.16;55.07;99059.09;106055;1273;107740;-69
2022/03/03 02:56:26;;;;;;;89.50;43.80;;;;;;;1.16;55.05;99056.45;106131;1273;97867;-71
2022/03/03 02:58:58;;;;;;;75.70;39.60;;;;;;;1.16;55.08;99061.52;106190;1273;99306;-69
2022/03/03 03:01:30;;;;;;;81.90;41.30;;;;;;;1.12;55.00;99063.94;106173;1273;111372;-70
2022/03/03 03:03:58;;;;;;;84.40;43.30;;;;;;;1.06;55.11;99063.94;106107;1273;96416;-68
2022/03/03 03:06:30;;;;;;;81.20;40.30;;;;;;;1.07;55.11;99062.54;106091;1273;108806;-69
2022/03/03 03:09:00;;;;;;;81.60;41.50;;;;;;;1.06;55.06;99062.39;106071;1273;97960;-69
2022/03/03 03:11:30;;;;;;;83.40;39.70;;;;;;;1.03;55.20;99061.60;106175;1273;97775;-70
2022/03/03 03:13:58;;;;;;;78.80;38.50;;;;;;;0.96;55.11;99059.23;106079;1273;111997;-66
2022/03/03 03:16:28;;;;;;;70.40;36.80;;;;;;;0.92;55.11;99057.10;106090;1273;95266;-70
2022/03/03 03:18:56;;;;;;;87.20;41.40;;;;;;;0.87;55.18;99051.51;106086;1273;107680;-69
2022/03/03 03:21:26;;;;;;;81.60;40.00;;;;;;;0.82;55.10;99049.90;106093;1273;95622;-70
2022/03/03 03:23:57;;;;;;;81.20;39.60;;;;;;;0.79;55.15;99049.69;106118;1273;97795;-69
2022/03/03 03:26:27;;;;;;;78.60;39.90;;;;;;;0.77;55.12;99049.55;106131;1273;111444;-69
2022/03/03 03:28:57;;;;;;;79.20;38.40;;;;;;;0.76;55.14;99051.71;106113;1273;97938;-69
2022/03/03 03:31:27;;;;;;;86.00;42.30;;;;;;;0.71;55.18;99054.98;106168;1273;108458;-68
2022/03/03 03:33:58;;;;;;;79.50;40.00;;;;;;;0.69;55.23;99054.36;105992;1273;164826;-70
2022/03/03 03:36:26;;;;;;;86.80;41.70;;;;;;;0.66;55.31;99052.54;106135;1273;95315;-71
2022/03/03 03:38:54;;;;;;;77.70;37.10;;;;;;;0.64;55.31;99049.98;106214;1273;111405;-70
2022/03/03 03:41:22;;;;;;;82.90;38.70;;;;;;;0.61;55.29;99048.69;106150;1273;97972;-69
2022/03/03 03:43:50;;;;;;;78.40;38.80;;;;;;;0.59;55.41;99044.55;106097;1273;107677;-70
2022/03/03 03:46:20;;;;;;;81.00;40.60;;;;;;;0.60;55.34;99040.86;106153;1273;97855;-69
2022/03/03 03:48:52;;;;;;;76.70;38.90;;;;;;;0.58;55.29;99039.35;106179;1273;97037;-68
2022/03/03 03:51:22;;;;;;;72.10;37.10;;;;;;;0.54;55.29;99035.12;106132;1273;112069;-70
2022/03/03 03:53:53;;;;;;;86.50;39.30;;;;;;;0.51;55.42;99036.25;106149;1273;96996;-69
2022/03/03 03:56:21;;;;;;;84.40;39.30;;;;;;;0.49;55.33;99036.15;106111;1273;108320;-69
2022/03/03 03:58:52;;;;;;;74.20;36.90;;;;;;;0.42;55.36;99036.16;106083;1273;97890;-68
2022/03/03 04:01:21;;;;;;;77.80;38.50;;;;;;;0.40;55.54;99035.73;106101;1273;96555;-68
2022/03/03 04:03:55;;;;;;;75.40;39.40;;;;;;;0.38;55.58;99034.21;106063;1274;112121;-68
2022/03/03 04:06:27;;;;;;;74.70;39.30;;;;;;;0.36;55.52;99029.41;106065;1273;97922;-68
2022/03/03 04:08:59;;;;;;;79.60;39.00;;;;;;;0.33;55.51;99023.23;106137;1274;107646;-70
2022/03/03 04:11:33;;;;;;;76.50;38.70;;;;;;;0.30;55.60;99021.91;106073;1274;95277;-69
2022/03/03 04:14:01;;;;;;;78.50;38.70;;;;;;;0.27;55.62;99023.21;106039;1273;97950;-70
2022/03/03 04:16:35;;;;;;;74.40;38.10;;;;;;;0.23;55.59;99025.95;106037;1274;113557;-71
2022/03/03 04:19:05;;;;;;;71.10;36.60;;;;;;;0.22;55.56;99026.52;106063;1274;95272;-69
2022/03/03 04:21:36;;;;;;;72.90;35.90;;;;;;;0.22;55.54;99019.71;106002;1274;108298;-68
2022/03/03 04:24:11;;;;;;;70.10;36.20;;;;;;;0.26;55.77;99016.98;105998;1274;97915;-69
2022/03/03 04:26:39;;;;;;;79.00;37.40;;;;;;;0.27;55.76;99017.11;106108;1274;98548;-69
2022/03/03 04:29:09;;;;;;;75.10;37.30;;;;;;;0.27;55.76;99010.33;106075;1274;112068;-68
2022/03/03 04:31:39;;;;;;;73.70;36.50;;;;;;;0.24;55.66;99011.95;106115;1274;97897;-70
2022/03/03 04:34:13;;;;;;;72.40;37.00;;;;;;;0.23;55.61;99005.02;106032;1274;108373;-67
2022/03/03 04:36:41;;;;;;;70.90;36.20;;;;;;;0.22;55.79;99004.02;106075;1273;97964;-67
2022/03/03 04:39:15;;;;;;;68.00;36.30;;;;;;;0.20;55.71;99004.27;106090;1274;96983;-69
2022/03/03 04:41:43;;;;;;;74.90;38.70;;;;;;;0.17;55.87;99004.36;106098;1274;111095;-68
2022/03/03 04:44:17;;;;;;;84.20;39.00;;;;;;;0.13;55.93;99003.44;106150;1274;97885;-71
2022/03/03 04:46:45;;;;;;;76.90;39.30;;;;;;;0.12;55.86;99008.16;106010;1274;107494;-70
2022/03/03 04:49:15;;;;;;;72.00;37.80;;;;;;;0.11;55.83;99009.77;106030;1274;97891;-70
2022/03/03 04:51:46;;;;;;;69.00;36.00;;;;;;;0.07;55.88;99010.75;106094;1273;97906;-68
2022/03/03 04:54:17;;;;;;;72.10;37.60;;;;;;;0.05;55.93;99008.54;106105;1274;111488;-68
2022/03/03 04:56:47;;;;;;;73.90;37.40;;;;;;;0.06;55.88;99009.40;106087;1273;97980;-68
2022/03/03 04:59:15;;;;;;;70.00;38.30;;;;;;;0.06;55.90;99005.90;106093;1274;108350;-68
2022/03/03 05:01:43;;;;;;;86.50;40.00;;;;;;;0.04;55.99;99005.09;106044;1274;97998;-68
2022/03/03 05:04:12;;;;;;;80.40;39.30;;;;;;;0.03;55.98;98997.11;106133;1274;96342;-70
2022/03/03 05:06:49;;;;;;;75.80;38.30;;;;;;;0.02;56.14;98993.11;106131;1274;111407;-68
2022/03/03 05:09:17;;;;;;;70.70;34.40;;;;;;;0.02;56.10;98988.41;106197;1273;97930;-70
2022/03/03 05:11:51;;;;;;;69.20;35.80;;;;;;;0.02;56.11;98986.14;106206;1274;108938;-69
2022/03/03 05:14:19;;;;;;;71.80;35.70;;;;;;;0.04;56.19;98989.55;106133;1274;97990;-70
2022/03/03 05:16:47;;;;;;;71.80;36.30;;;;;;;0.04;56.37;98993.41;106102;1274;95338;-68
2022/03/03 05:19:15;;;;;;;74.10;36.90;;;;;;;0.03;56.28;98992.41;106208;1274;111939;-68
2022/03/03 05:21:45;;;;;;;72.20;35.80;;;;;;;0.02;56.20;98991.54;106188;1274;97878;-68
2022/03/03 05:24:19;;;;;;;71.50;35.60;;;;;;;0.03;56.26;98995.00;106184;1274;108341;-69
2022/03/03 05:26:47;;;;;;;69.80;37.70;;;;;;;0.03;56.49;98992.05;106186;1274;97890;-65
2022/03/03 05:29:18;;;;;;;77.10;36.20;;;;;;;0.02;56.36;98993.11;106212;1274;97758;-68
2022/03/03 05:31:48;;;;;;;78.00;36.80;;;;;;;0.02;56.42;98989.62;106161;1274;111769;-67
2022/03/03 05:34:18;;;;;;;73.40;37.10;;;;;;;0.03;56.34;98989.63;106199;1274;97984;-68
2022/03/03 05:36:49;;;;;;;76.60;34.80;;;;;;;0.03;56.41;98983.16;106190;1274;108382;-68
2022/03/03 05:39:22;;;;;;;67.80;34.40;;;;;;;0.02;56.67;98979.34;106232;1274;97914;-68
2022/03/03 05:41:50;;;;;;;62.80;31.10;;;;;;;0.02;56.35;98979.86;106215;1274;98447;-68
2022/03/03 05:44:24;;;;;;;66.60;34.30;;;;;;;0.04;56.38;98979.98;106195;1274;110969;-69
2022/03/03 05:46:57;;;;;;;62.60;32.10;;;;;;;0.06;56.38;98978.34;106208;1274;97999;-69
2022/03/03 05:49:29;;;;;;;67.70;34.90;;;;;;;0.10;56.60;98978.05;106203;1274;106696;-67
2022/03/03 05:51:57;;;;;;;71.10;34.40;;;;;;;0.11;56.40;98977.66;106148;1274;98017;-69
2022/03/03 05:54:26;;;;;;;70.20;35.10;;;;;;;0.11;56.63;98977.14;106058;1274;95235;-69
2022/03/03 05:57:00;;;;;;;61.20;31.80;;;;;;;0.14;56.64;98982.81;106066;1273;112002;-70
2022/03/03 05:59:35;;;;;;;67.80;34.30;;;;;;;0.17;56.64;98983.60;106148;1273;97753;-69
2022/03/03 06:02:08;;;;;;;62.00;32.30;;;;;;;0.20;56.69;98985.77;106122;1273;107753;-67
2022/03/03 06:04:40;;;;;;;63.70;30.40;;;;;;;0.24;56.65;98986.52;106133;1273;97992;-68
2022/03/03 06:07:11;;;;;;;66.70;33.70;;;;;;;0.28;56.71;98983.77;106101;1273;96332;-70
2022/03/03 06:09:45;;;;;;;63.40;33.00;;;;;;;0.33;56.90;98988.85;106084;1273;111062;-70
2022/03/03 06:12:54;;;;;;;71.50;34.70;;;;;;;0.36;56.85;98991.03;106076;1273;96971;-69
2022/03/03 06:15:23;;;;;;;63.50;32.80;;;;;;;0.38;56.87;98990.27;106069;1273;107656;-69
2022/03/03 06:17:57;;;;;;;69.80;33.50;;;;;;;0.39;56.95;98988.85;106069;1273;97988;-67
2022/03/03 06:20:30;;;;;;;64.10;34.70;;;;;;;0.41;56.94;98988.95;106038;1273;97940;-66
2022/03/03 06:22:58;;;;;;;65.40;32.30;;;;;;;0.46;56.97;98988.45;106055;1273;111322;-68
2022/03/03 06:25:32;;;;;;;64.00;32.00;;;;;;;0.46;56.90;98985.30;106069;1273;97806;-68
2022/03/03 06:28:00;;;;;;;58.90;29.80;;;;;;;0.49;56.90;98987.99;105981;1273;108416;-68
2022/03/03 06:30:32;;;;;;;67.20;34.40;;;;;;;0.53;56.89;98982.11;106093;1272;97884;-70
2022/03/03 06:33:05;;;;;;;67.60;34.00;;;;;;;0.57;57.16;98981.78;106113;1273;96241;-69
2022/03/03 06:35:36;;;;;;;64.10;31.70;;;;;;;0.64;57.06;98985.75;106086;1271;111971;-70
2022/03/03 06:38:07;;;;;;;;;;;;;;;0.68;57.03;98989.09;106241;1273;98011;-67
2022/03/03 06:40:35;;;;;;;81.40;35.00;;;;;;;0.69;57.05;98985.23;106208;1273;107470;-67
2022/03/03 06:43:06;;;;;;;62.40;32.10;;;;;;;0.73;56.94;98986.33;106181;1272;96548;-69
2022/03/03 06:45:38;;;;;;;68.90;36.20;;;;;;;0.76;57.11;98987.81;106060;1274;97990;-67
2022/03/03 06:48:09;;;;;;;72.90;34.50;;;;;;;0.80;57.07;98988.20;106014;1274;111500;-69
2022/03/03 06:50:42;;;;;;;64.90;33.30;;;;;;;0.87;57.14;98988.13;106187;1273;97758;-68
2022/03/03 06:53:10;;;;;;;67.80;33.60;;;;;;;0.94;57.19;98988.22;106086;1273;108380;-70
2022/03/03 06:55:49;;;;;;;68.20;34.30;;;;;;;1.00;57.32;98985.08;106086;1273;95276;-70
2022/03/03 06:58:22;;;;;;;67.60;35.00;;;;;;;1.01;57.18;98988.15;106033;1274;96231;-71
2022/03/03 07:00:56;;;;;;;68.40;32.80;;;;;;;1.03;57.29;98988.44;106128;1273;112017;-71
2022/03/03 07:03:29;;;;;;;65.30;32.40;;;;;;;1.06;57.10;98984.16;106216;1273;97967;-72
2022/03/03 07:06:02;;;;;;;65.40;34.60;;;;;;;1.10;57.24;98987.33;106086;1273;107720;-71
2022/03/03 07:08:35;;;;;;;66.00;32.40;;;;;;;1.13;57.39;98984.26;106140;1274;95251;-70
2022/03/03 07:11:03;;;;;;;63.30;34.20;;;;;;;1.14;57.33;98984.75;106066;1274;97867;-72
2022/03/03 07:13:31;;;;;;;67.40;32.70;;;;;;;1.19;57.30;98978.12;106122;1273;111423;-69
2022/03/03 07:16:37;;;;;;;68.00;33.40;;;;;;;1.24;57.52;98974.61;106136;1273;97827;-71
2022/03/03 07:19:31;;;;;;;66.70;30.20;;;;;;;1.29;57.51;98969.19;106175;1274;107830;-73
2022/03/03 07:22:31;;;;;;;61.80;32.50;;;;;;;1.36;57.46;98968.24;106033;1273;97866;-67
2022/03/03 07:25:02;;;;;;;64.10;31.80;;;;;;;1.43;57.39;98969.92;106146;1273;97887;-69
2022/03/03 07:27:46;;;;;;;60.30;31.10;;;;;;;1.52;57.58;98977.80;106035;1274;112434;-70
2022/03/03 07:30:16;;;;;;;62.00;30.20;;;;;;;1.63;57.78;98976.31;105990;1274;97948;-69
2022/03/03 07:33:27;;;;;;;66.60;33.70;;;;;;;1.70;57.53;98983.08;106076;1273;108337;-69
2022/03/03 07:36:00;;;;;;;59.80;30.50;;;;;;;1.78;57.63;98984.69;105870;1274;97976;-70
2022/03/03 07:38:38;;;;;;;63.70;31.60;;;;;;;1.86;57.47;98976.52;106076;1273;97894;-70
2022/03/03 07:41:10;;;;;;;66.10;31.70;;;;;;;1.90;57.59;98976.38;106026;1274;111485;-69
2022/03/03 07:43:38;;;;;;;58.50;31.90;;;;;;;1.98;57.44;98976.94;106080;1273;98127;-69
2022/03/03 07:46:09;;;;;;;63.60;30.00;;;;;;;2.07;57.42;98979.36;106025;1274;108449;-71
2022/03/03 07:48:42;;;;;;;61.90;31.80;;;;;;;2.15;57.65;98977.68;106138;1273;95289;-69
2022/03/03 07:51:12;;;;;;;56.80;30.00;;;;;;;2.18;57.56;98975.80;106067;1273;95316;-67
2022/03/03 07:53:40;;;;;;;56.30;30.80;;;;;;;2.23;57.54;98972.83;105967;1273;110562;-69
2022/03/03 07:56:13;;;;;;;65.30;33.40;;;;;;;2.29;57.62;98969.25;106168;1273;97880;-69
2022/03/03 07:58:50;;;;;;;56.90;29.40;;;;;;;2.34;57.88;98968.19;106173;1273;108328;-69
2022/03/03 08:01:24;;;;;;;58.20;30.80;;;;;;;2.41;57.59;98967.39;105984;1275;98049;-71
2022/03/03 08:03:53;;;;;;;54.90;27.80;;;;;;;2.49;57.90;98955.83;106063;1273;97957;-70
2022/03/03 08:06:24;;;;;;;59.00;30.70;;;;;;;2.57;57.88;98953.24;106056;1273;111344;-70
2022/03/03 08:08:55;;;;;;;59.40;31.10;;;;;;;2.66;57.83;98950.21;106176;1273;97961;-69
2022/03/03 08:11:32;;;;;;;59.60;31.50;;;;;;;2.75;57.66;98950.56;106096;1273;108934;-70
2022/03/03 08:14:05;;;;;;;58.00;30.50;;;;;;;2.81;57.75;98952.25;106127;1273;97873;-70
2022/03/03 08:16:44;;;;;;;54.50;28.70;;;;;;;2.91;57.53;98950.22;106157;1273;95930;-71
2022/03/03 08:19:17;;;;;;;51.10;27.60;;;;;;;3.01;57.80;98946.48;106007;1273;110401;-71
2022/03/03 08:21:45;;;;;;;51.70;27.50;;;;;;;3.11;57.88;98944.65;106171;1273;97877;-71
2022/03/03 08:24:21;;;;;;;54.80;29.40;;;;;;;3.14;57.91;98947.33;105991;1274;106465;-70
2022/03/03 08:26:49;;;;;;;52.80;29.60;;;;;;;3.14;57.81;98945.54;106041;1274;97871;-71
2022/03/03 08:29:17;;;;;;;54.70;29.20;;;;;;;3.14;57.19;98949.23;105945;1274;97873;-70
2022/03/03 08:31:51;;;;;;;60.50;30.30;;;;;;;3.08;57.60;98947.06;105968;1272;112026;-70
2022/03/03 08:34:35;;;;;;;59.20;31.00;;;;;;;3.01;57.40;98943.17;106130;1274;97776;-70
2022/03/03 08:37:11;;;;;;;54.00;29.50;;;;;;;3.01;57.76;98945.80;106199;1273;107790;-70
2022/03/03 08:39:40;;;;;;;54.20;28.00;;;;;;;3.07;57.36;98936.41;106161;1274;97862;-71
2022/03/03 08:42:13;;;;;;;59.60;31.20;;;;;;;3.22;57.69;98935.91;106167;1274;97906;-70
2022/03/03 08:44:52;;;;;;;61.20;31.40;;;;;;;3.40;57.67;98938.10;106119;1273;112113;-71
2022/03/03 08:47:22;;;;;;;53.80;27.80;;;;;;;3.43;57.47;98936.19;106111;1273;97861;-71
2022/03/03 08:49:58;;;;;;;51.20;27.30;;;;;;;3.43;57.46;98932.70;106062;1273;107832;-71
2022/03/03 08:52:47;;;;;;;47.40;25.60;;;;;;;3.47;57.68;98932.02;106006;1274;97968;-69
2022/03/03 08:55:18;;;;;;;50.00;26.40;;;;;;;3.55;57.40;98932.52;106026;1273;97899;-69
2022/03/03 08:57:46;;;;;;;48.40;26.00;;;;;;;3.71;57.51;98925.98;105903;1273;112089;-70
2022/03/03 09:00:18;;;;;;;53.90;26.60;;;;;;;4.03;57.65;98923.09;105970;1273;97871;-69
2022/03/03 09:02:48;;;;;;;47.80;25.70;;;;;;;4.39;57.40;98925.73;106057;1273;108391;-71
2022/03/03 09:05:20;;;;;;;50.60;26.60;;;;;;;4.65;57.33;98924.41;106049;1274;97965;-70
2022/03/03 09:07:49;;;;;;;50.50;28.20;;;;;;;4.93;57.47;98926.87;106184;1274;95406;-71
2022/03/03 09:10:17;;;;;;;52.30;27.30;;;;;;;5.02;57.14;98929.41;106033;1274;111407;-70
2022/03/03 09:12:45;;;;;;;51.60;28.40;;;;;;;5.09;57.18;98925.03;106160;1273;97881;-71
2022/03/03 09:15:15;;;;;;;50.10;27.30;;;;;;;5.16;56.83;98927.44;106064;1274;107744;-68
2022/03/03 09:17:44;;;;;;;51.10;27.70;;;;;;;5.26;57.10;98922.23;106030;1274;96507;-70
2022/03/03 09:20:15;;;;;;;55.50;27.80;;;;;;;5.51;56.79;98927.54;106180;1274;97868;-70
2022/03/03 09:22:46;;;;;;;49.30;27.20;;;;;;;5.69;57.20;98923.77;106209;1273;111404;-70
2022/03/03 09:25:15;;;;;;;48.20;26.90;;;;;;;5.91;57.33;98927.14;106268;1272;97842;-69
2022/03/03 09:27:43;;;;;;;51.80;28.00;;;;;;;6.06;56.79;98928.29;106286;1273;107875;-73
2022/03/03 09:30:12;;;;;;;45.90;25.60;;;;;;;6.03;56.69;98929.88;106214;1273;97866;-70
2022/03/03 09:32:40;;;;;;;50.00;26.60;;;;;;;6.18;56.47;98930.61;106224;1273;97851;-71
2022/03/03 09:35:09;;;;;;;48.90;25.80;;;;;;;6.49;57.09;98933.41;106024;1273;111523;-72
2022/03/03 09:37:38;;;;;;;44.80;25.10;;;;;;;6.69;57.14;98926.27;106134;1273;96220;-70
2022/03/03 09:40:11;;;;;;;43.90;25.10;;;;;;;6.92;56.40;98922.30;106141;1273;106713;-68
2022/03/03 09:42:39;;;;;;;52.50;26.50;;;;;;;7.04;56.50;98922.11;106105;1273;97881;-72
2022/03/03 09:45:11;;;;;;;47.00;25.20;;;;;;;7.22;56.64;98923.10;106198;1273;95988;-68
2022/03/03 09:47:39;;;;;;;48.60;25.10;;;;;;;7.47;56.60;98919.15;106118;1273;112119;-71
2022/03/03 09:50:09;;;;;;;44.10;23.90;;;;;;;7.72;55.59;98919.88;106230;1273;97031;-68
2022/03/03 09:52:43;;;;;;;43.40;24.90;;;;;;;7.98;56.53;98916.25;106144;1273;108642;-72
2022/03/03 09:55:11;;;;;;;43.80;24.20;;;;;;;8.16;55.84;98918.50;106138;1273;97861;-71
2022/03/03 09:57:39;;;;;;;44.20;23.30;;;;;;;8.10;55.87;98917.99;106130;1273;96898;-71
2022/03/03 10:00:09;;;;;;;41.90;24.50;;;;;;;7.99;55.13;98917.13;106133;1273;111417;-70
2022/03/03 10:03:14;;;;;;;42.60;24.20;;;;;;;7.98;55.65;98911.32;105936;1273;97966;-71
2022/03/03 10:05:46;;;;;;;40.60;24.30;;;;;;;7.93;55.59;98908.85;105945;1273;107728;-71
2022/03/03 10:08:23;;;;;;;48.40;25.20;;;;;;;7.97;55.36;98912.48;106005;1273;97898;-70
2022/03/03 10:11:03;;;;;;;39.30;22.90;;;;;;;7.94;55.52;98910.18;105929;1273;98051;-71
2022/03/03 10:13:45;;;;;;;41.00;23.80;;;;;;;7.88;55.58;98905.48;106027;1273;111635;-73
2022/03/03 10:16:25;;;;;;;41.30;23.40;;;;;;;8.00;55.73;98897.58;106140;1273;97871;-73
2022/03/03 10:19:03;;;;;;;43.40;25.50;;;;;;;8.05;54.15;98901.34;106044;1270;108171;-70
2022/03/03 10:21:33;;;;;;;42.20;24.10;;;;;;;7.91;55.19;98902.07;105987;1273;96465;-72
2022/03/03 10:24:15;;;;;;;45.50;25.90;;;;;;;7.72;54.89;98897.11;105972;1273;97987;-71
2022/03/03 10:26:44;;;;;;;50.90;27.90;;;;;;;7.60;53.56;98893.93;105956;1273;112144;-71
2022/03/03 10:29:20;;;;;;;43.60;25.40;;;;;;;7.63;54.84;98892.20;105913;1273;98097;-70
2022/03/03 10:31:50;;;;;;;45.80;24.40;;;;;;;7.73;54.29;98894.58;106005;1273;107766;-72
2022/03/03 10:34:26;;;;;;;41.00;23.50;;;;;;;7.55;53.98;98888.08;106099;1273;97916;-70
2022/03/03 10:36:59;;;;;;;41.70;23.50;;;;;;;7.48;54.12;98886.47;106118;1273;95263;-71
2022/03/03 10:39:48;;;;;;;44.40;23.50;;;;;;;7.56;54.63;98882.05;106110;1273;112048;-71
2022/03/03 10:42:19;;;;;;;44.00;23.20;;;;;;;7.56;54.03;98878.70;106010;1273;97715;-69
2022/03/03 10:44:49;;;;;;;42.50;23.30;;;;;;;7.58;53.06;98877.11;105970;1273;108427;-72
2022/03/03 10:47:21;;;;;;;43.70;22.10;;;;;;;7.54;53.42;98870.70;106039;1273;97958;-71
2022/03/03 10:49:53;;;;;;;39.30;19.60;;;;;;;7.52;53.85;98871.52;106048;1273;96315;-71
2022/03/03 10:52:24;;;;;;;32.50;16.90;;;;;;;7.54;53.65;98872.65;105929;1273;111369;-69
2022/03/03 10:55:10;;;;;;;34.50;18.30;;;;;;;7.64;53.47;98873.02;105991;1273;97947;-69
2022/03/03 10:57:46;;;;;;;37.60;17.30;;;;;;;7.73;53.64;98868.79;106090;1273;108359;-70
2022/03/03 11:00:17;;;;;;;32.40;17.00;;;;;;;7.81;53.13;98863.51;106066;1273;96335;-72
2022/03/03 11:02:53;;;;;;;34.30;17.50;;;;;;;7.87;53.09;98859.77;106176;1273;95978;-71
2022/03/03 11:05:24;;;;;;;34.40;18.20;;;;;;;7.78;52.73;98861.38;106058;1273;111293;-70
2022/03/03 11:07:56;;;;;;;36.00;18.30;;;;;;;7.50;51.84;98861.39;106102;1273;96604;-71
2022/03/03 11:10:27;;;;;;;35.50;17.90;;;;;;;7.21;52.61;98861.30;105745;1276;105860;-70
2022/03/03 11:12:56;;;;;;;35.50;18.30;;;;;;;7.12;52.63;98864.49;107869;1273;96108;-68
2022/03/03 11:15:25;;;;;;;34.60;17.70;;;;;;;7.10;52.59;98865.47;106064;1273;96414;-70
2022/03/03 11:17:55;;;;;;;36.50;19.60;;;;;;;6.94;52.07;98861.15;105873;1273;111454;-70
2022/03/03 11:20:24;;;;;;;37.50;19.50;;;;;;;6.68;51.53;98864.29;105807;1273;97909;-71
2022/03/03 11:22:54;;;;;;;37.10;18.60;;;;;;;6.44;51.76;98865.05;106073;1273;107469;-70
2022/03/03 11:25:35;;;;;;;37.20;18.10;;;;;;;6.30;52.09;98865.13;106075;1273;96322;-72
2022/03/03 11:28:12;;;;;;;38.00;18.00;;;;;;;6.20;51.95;98862.18;106198;1273;97818;-71
2022/03/03 11:30:40;;;;;;;38.10;17.10;;;;;;;6.21;52.11;98864.75;106104;1273;111400;-72
2022/03/03 11:33:27;;;;;;;34.60;17.20;;;;;;;6.21;51.95;98861.93;106031;1274;98530;-70
2022/03/03 11:36:03;;;;;;;36.40;19.60;;;;;;;6.19;51.65;98862.23;106127;1273;107839;-70